Time;durP1;ratioP1;P1;durP2;ratioP2;P2;SDS_P1;SDS_P2;PMS_P1;PMS_P2;Temp;Humidity;BMP_temperature;BMP_pressure;BME280_temperature;BME280_humidity;BME280_pressure;Samples;Min_cycle;Max_cycle;Signal;HPM_P1;HPM_P2
2023/01/30 00:00:51;;;;;;;;;;;3.50;87.90;;;;;;5046031;28;19917;-79
2023/01/30 00:03:16;;;;;;;;;;;3.50;87.90;;;;;;5039112;28;20302;-79
2023/01/30 00:05:42;;;;;;;;;;;3.60;88.10;;;;;;5037235;28;19925;-79
2023/01/30 00:08:07;;;;;;;;;;;3.60;88.00;;;;;;5070676;28;19931;-79
2023/01/30 00:10:33;;;;;;;;;;;3.60;88.20;;;;;;5038185;28;19917;-79
2023/01/30 00:12:58;;;;;;;;;;;3.60;88.20;;;;;;5041307;28;19980;-79
2023/01/30 00:15:23;;;;;;;;;;;3.60;88.10;;;;;;5039731;28;19916;-78
2023/01/30 00:17:49;;;;;;;;;;;3.70;88.20;;;;;;5048975;28;19913;-78
2023/01/30 00:20:14;;;;;;;;;;;3.60;88.10;;;;;;5067231;23;19924;-82
2023/01/30 00:22:40;;;;;;;;;;;3.60;88.30;;;;;;5086130;28;19920;-81
2023/01/30 00:25:05;;;;;;;;;;;3.60;88.50;;;;;;5081159;28;19916;-83
2023/01/30 00:27:31;;;;;;;;;;;3.70;88.40;;;;;;5079524;28;19969;-85
2023/01/30 00:29:56;;;;;;;;;;;3.70;88.50;;;;;;5076179;28;19912;-85
2023/01/30 00:32:25;;;;;;;;;;;3.70;88.50;;;;;;5067797;28;19931;-83
2023/01/30 00:34:50;;;;;;;;;;;3.70;88.40;;;;;;5081509;28;20003;-84
2023/01/30 00:37:16;;;;;;;;;;;3.70;88.60;;;;;;5074335;28;19955;-83
2023/01/30 00:39:41;;;;;;;;;;;3.80;88.50;;;;;;5085957;28;19912;-83
2023/01/30 00:47:36;;;;;;;;;;;3.80;88.50;;;;;;5078946;28;19985;-84
2023/01/30 00:50:02;;;;;;;;;;;3.70;88.50;;;;;;5072059;28;19951;-83
2023/01/30 00:52:27;;;;;;;;;;;3.80;88.60;;;;;;5071302;28;19935;-84
2023/01/30 00:54:53;;;;;;;;;;;3.80;88.60;;;;;;5077839;28;19976;-82
2023/01/30 00:57:18;;;;;;;;;;;3.80;88.40;;;;;;5072128;28;19912;-81
2023/01/30 00:59:44;;;;;;;;;;;3.80;88.50;;;;;;5096018;28;19920;-80
2023/01/30 01:02:09;;;;;;;;;;;3.80;88.50;;;;;;5087269;28;20013;-82
2023/01/30 01:04:42;;;;;;;;;;;3.90;88.50;;;;;;5078971;28;19916;-81
2023/01/30 01:07:13;;;;;;;;;;;3.80;88.60;;;;;;5088886;28;19918;-83
2023/01/30 01:09:38;;;;;;;;;;;3.90;88.60;;;;;;5066976;28;20116;-82
2023/01/30 01:12:04;;;;;;;;;;;3.90;88.60;;;;;;5070118;28;19965;-85
2023/01/30 01:14:29;;;;;;;;;;;3.80;88.70;;;;;;5068337;28;20330;-85
2023/01/30 01:16:55;;;;;;;;;;;3.90;88.80;;;;;;5073849;28;19974;-82
2023/01/30 01:19:21;;;;;;;;;;;3.90;88.80;;;;;;5070255;28;19963;-80
2023/01/30 01:21:46;;;;;;;;;;;3.90;88.70;;;;;;5069384;28;19951;-85
2023/01/30 01:24:12;;;;;;;;;;;3.90;88.80;;;;;;5075567;28;19912;-83
2023/01/30 01:26:38;;;;;;;;;;;4.00;88.90;;;;;;5085735;28;19928;-84
2023/01/30 01:29:03;;;;;;;;;;;4.00;89.00;;;;;;5090989;28;19917;-83
2023/01/30 01:31:29;;;;;;;;;;;4.00;89.30;;;;;;5073490;28;19923;-84
2023/01/30 01:33:55;;;;;;;;;;;4.00;89.70;;;;;;5068218;28;19931;-84
2023/01/30 01:36:20;;;;;;;;;;;4.00;89.90;;;;;;5070176;28;19917;-84
2023/01/30 01:38:46;;;;;;;;;;;4.00;90.10;;;;;;5072260;28;19920;-84
2023/01/30 01:41:12;;;;;;;;;;;4.00;90.40;;;;;;5068396;28;20028;-85
2023/01/30 01:43:57;;;;;;;;;;;4.00;90.40;;;;;;5071041;28;19913;-84
2023/01/30 01:46:25;;;;;;;;;;;4.00;90.60;;;;;;5075109;28;19917;-84
2023/01/30 01:48:53;;;;;;;;;;;4.00;90.60;;;;;;5073510;28;19965;-85
2023/01/30 01:51:23;;;;;;;;;;;4.00;90.80;;;;;;5073663;28;19913;-85
2023/01/30 01:53:52;;;;;;;;;;;4.00;90.70;;;;;;5077112;28;19978;-84
2023/01/30 01:56:18;;;;;;;;;;;4.00;91.00;;;;;;5085032;28;20002;-81
2023/01/30 01:58:50;;;;;;;;;;;4.00;90.90;;;;;;5098897;28;19918;-81
2023/01/30 02:01:15;;;;;;;;;;;4.00;91.20;;;;;;5099303;28;19912;-81
2023/01/30 02:03:43;;;;;;;;;;;4.00;91.10;;;;;;5072667;28;20388;-83
2023/01/30 02:06:09;;;;;;;;;;;4.10;91.30;;;;;;5065258;28;20646;-83
2023/01/30 02:08:37;;;;;;;;;;;4.00;91.20;;;;;;5076755;28;19912;-80
2023/01/30 02:11:05;;;;;;;;;;;4.10;91.10;;;;;;5083845;28;19978;-82
2023/01/30 02:13:31;;;;;;;;;;;4.10;91.20;;;;;;5069820;28;19931;-84
2023/01/30 02:15:58;;;;;;;;;;;4.00;91.20;;;;;;5067497;28;20369;-82
2023/01/30 02:18:24;;;;;;;;;;;4.10;91.30;;;;;;5068910;28;19913;-84
2023/01/30 02:20:57;;;;;;;;;;;4.10;91.30;;;;;;5080840;28;19951;-84
2023/01/30 02:23:40;;;;;;;;;;;4.10;91.40;;;;;;5072239;28;19967;-83
2023/01/30 02:26:06;;;;;;;;;;;4.10;91.40;;;;;;5083092;28;20065;-82
2023/01/30 02:28:34;;;;;;;;;;;4.10;91.40;;;;;;5065968;28;19975;-83
2023/01/30 02:31:06;;;;;;;;;;;4.10;91.30;;;;;;5068194;28;19920;-83
2023/01/30 02:33:31;;;;;;;;;;;4.20;91.30;;;;;;5082398;28;19927;-81
2023/01/30 02:36:09;;;;;;;;;;;4.20;91.30;;;;;;5088225;28;22076;-85
2023/01/30 02:38:40;;;;;;;;;;;4.20;91.40;;;;;;5075948;28;19913;-80
2023/01/30 02:41:05;;;;;;;;;;;4.20;91.30;;;;;;5077586;28;20086;-83
2023/01/30 02:43:40;;;;;;;;;;;4.20;91.30;;;;;;5080811;28;19939;-84
2023/01/30 02:46:11;;;;;;;;;;;4.30;91.30;;;;;;5065302;28;19974;-83
2023/01/30 02:48:46;;;;;;;;;;;4.30;91.10;;;;;;5074579;28;20004;-83
2023/01/30 02:51:16;;;;;;;;;;;4.30;91.10;;;;;;5068230;28;19955;-84
2023/01/30 02:53:42;;;;;;;;;;;4.40;91.10;;;;;;5075135;28;19932;-84
2023/01/30 02:56:07;;;;;;;;;;;4.40;90.90;;;;;;5075329;28;19921;-84
2023/01/30 02:58:41;;;;;;;;;;;4.40;91.00;;;;;;5064194;28;19955;-84
2023/01/30 03:01:25;;;;;;;;;;;4.40;90.90;;;;;;5062466;28;20006;-83
2023/01/30 03:04:27;;;;;;;;;;;4.50;91.00;;;;;;5065362;28;19931;-83
2023/01/30 03:07:03;;;;;;;;;;;4.50;90.90;;;;;;5023305;28;19902;-82
2023/01/30 03:09:45;;;;;;;;;;;4.40;90.90;;;;;;5065472;28;19916;-84
2023/01/30 03:12:17;;;;;;;;;;;4.50;90.90;;;;;;5063101;28;20024;-84
2023/01/30 03:14:51;;;;;;;;;;;4.50;90.80;;;;;;5063973;28;20435;-84
2023/01/30 03:17:19;;;;;;;;;;;4.60;90.80;;;;;;5068073;28;20015;-84
2023/01/30 03:19:45;;;;;;;;;;;4.60;90.60;;;;;;5063554;28;19924;-83
2023/01/30 03:22:10;;;;;;;;;;;4.60;90.80;;;;;;5070957;28;20753;-83
2023/01/30 03:24:36;;;;;;;;;;;4.60;90.60;;;;;;5087099;28;19921;-81
2023/01/30 03:27:04;;;;;;;;;;;4.60;90.60;;;;;;5099960;28;19915;-82
2023/01/30 03:29:30;;;;;;;;;;;4.60;90.60;;;;;;5074922;28;19974;-83
2023/01/30 03:31:55;;;;;;;;;;;4.60;90.80;;;;;;5071570;28;19952;-83
2023/01/30 03:34:20;;;;;;;;;;;4.60;90.60;;;;;;5070429;28;19958;-84
2023/01/30 03:36:46;;;;;;;;;;;4.60;90.80;;;;;;5061322;28;19916;-84
2023/01/30 03:39:12;;;;;;;;;;;4.70;90.50;;;;;;5063371;28;19913;-83
2023/01/30 03:41:37;;;;;;;;;;;4.70;90.60;;;;;;5063779;28;19923;-81
2023/01/30 03:44:03;;;;;;;;;;;4.60;90.90;;;;;;5065047;28;19912;-83
2023/01/30 03:46:28;;;;;;;;;;;4.70;90.90;;;;;;5063566;28;19932;-83
2023/01/30 03:48:54;;;;;;;;;;;4.60;91.00;;;;;;5072280;28;21001;-81
2023/01/30 03:51:19;;;;;;;;;;;4.70;91.00;;;;;;5062011;28;20014;-83
2023/01/30 03:53:45;;;;;;;;;;;4.70;91.00;;;;;;5067309;28;19974;-83
2023/01/30 03:56:10;;;;;;;;;;;4.80;91.20;;;;;;5063869;28;19980;-84
2023/01/30 03:58:35;;;;;;;;;;;4.70;91.20;;;;;;5070988;28;19920;-84
2023/01/30 04:01:01;;;;;;;;;;;4.70;91.30;;;;;;5071233;28;19921;-81
2023/01/30 04:03:26;;;;;;;;;;;4.70;91.30;;;;;;5078418;28;20007;-83
2023/01/30 04:05:52;;;;;;;;;;;4.80;91.30;;;;;;5068696;28;20332;-84
2023/01/30 04:08:17;;;;;;;;;;;4.80;91.30;;;;;;5062499;28;20340;-83
2023/01/30 04:10:43;;;;;;;;;;;4.80;91.40;;;;;;5067754;28;19919;-83
2023/01/30 04:13:08;;;;;;;;;;;4.80;91.40;;;;;;5070916;28;19920;-85
2023/01/30 04:15:34;;;;;;;;;;;4.80;91.50;;;;;;5066189;28;19918;-85
2023/01/30 04:17:59;;;;;;;;;;;4.80;91.60;;;;;;5067845;28;19924;-84
2023/01/30 04:20:24;;;;;;;;;;;4.80;91.60;;;;;;5071923;28;19920;-83
2023/01/30 04:22:50;;;;;;;;;;;4.80;91.70;;;;;;5064943;28;19928;-83
2023/01/30 04:25:15;;;;;;;;;;;4.70;91.60;;;;;;5070635;28;19975;-83
2023/01/30 04:27:41;;;;;;;;;;;4.80;92.00;;;;;;5071707;28;19917;-84
2023/01/30 04:30:06;;;;;;;;;;;4.80;91.90;;;;;;5072382;28;19920;-83
2023/01/30 04:32:32;;;;;;;;;;;4.70;92.10;;;;;;5065576;28;19916;-84
2023/01/30 04:34:57;;;;;;;;;;;4.70;92.20;;;;;;5071773;28;19937;-83
2023/01/30 04:37:23;;;;;;;;;;;4.80;92.20;;;;;;5090647;28;19920;-80
2023/01/30 04:39:48;;;;;;;;;;;4.80;92.20;;;;;;5081559;28;20409;-84
2023/01/30 04:42:14;;;;;;;;;;;4.80;92.20;;;;;;5073013;28;20265;-83
2023/01/30 04:44:39;;;;;;;;;;;4.80;92.20;;;;;;5071387;28;19924;-85
2023/01/30 04:47:04;;;;;;;;;;;4.90;92.30;;;;;;5085137;28;19968;-82
2023/01/30 04:49:30;;;;;;;;;;;4.80;92.10;;;;;;5080974;28;19928;-84
2023/01/30 04:51:55;;;;;;;;;;;4.80;92.30;;;;;;5072054;28;19920;-85
2023/01/30 04:54:21;;;;;;;;;;;4.90;92.30;;;;;;5069508;28;20007;-83
2023/01/30 04:56:46;;;;;;;;;;;4.80;92.30;;;;;;5085520;28;19916;-83
2023/01/30 04:59:12;;;;;;;;;;;4.90;92.40;;;;;;5070362;28;19966;-81
2023/01/30 05:01:38;;;;;;;;;;;4.90;92.40;;;;;;5067070;28;19986;-83
2023/01/30 05:04:04;;;;;;;;;;;4.90;92.50;;;;;;5063401;28;19931;-81
2023/01/30 05:06:30;;;;;;;;;;;4.90;92.50;;;;;;5067725;28;19924;-83
2023/01/30 05:08:56;;;;;;;;;;;5.00;92.50;;;;;;5068145;28;19919;-84
2023/01/30 05:11:22;;;;;;;;;;;5.00;92.50;;;;;;5084957;28;19936;-82
2023/01/30 05:13:48;;;;;;;;;;;5.00;92.40;;;;;;5091070;28;19900;-80
2023/01/30 05:16:14;;;;;;;;;;;5.10;92.40;;;;;;5088429;28;19920;-82
2023/01/30 05:18:39;;;;;;;;;;;5.00;92.50;;;;;;5070638;28;19916;-83
2023/01/30 05:21:06;;;;;;;;;;;5.00;92.60;;;;;;5065340;28;19938;-81
2023/01/30 05:23:31;;;;;;;;;;;5.10;92.60;;;;;;5081782;28;19990;-82
2023/01/30 05:25:57;;;;;;;;;;;5.10;92.40;;;;;;5065836;28;20452;-82
2023/01/30 05:28:22;;;;;;;;;;;5.10;92.60;;;;;;5067200;28;19916;-83
2023/01/30 05:30:48;;;;;;;;;;;5.10;92.60;;;;;;5060542;28;19921;-83
2023/01/30 05:33:13;;;;;;;;;;;5.10;92.70;;;;;;5069192;28;20003;-81
2023/01/30 05:35:44;;;;;;;;;;;5.10;92.60;;;;;;5071951;28;19955;-83
2023/01/30 05:38:10;;;;;;;;;;;5.10;92.70;;;;;;5069655;28;19912;-84
2023/01/30 05:40:35;;;;;;;;;;;5.20;92.60;;;;;;5066822;28;19928;-82
2023/01/30 05:43:01;;;;;;;;;;;5.20;92.70;;;;;;5066575;28;19930;-83
2023/01/30 05:45:26;;;;;;;;;;;5.20;92.80;;;;;;5068293;28;19943;-84
2023/01/30 05:47:52;;;;;;;;;;;5.20;92.80;;;;;;5068509;28;19920;-81
2023/01/30 05:50:17;;;;;;;;;;;5.20;92.80;;;;;;5095061;28;19908;-81
2023/01/30 05:52:43;;;;;;;;;;;5.30;93.00;;;;;;5081312;28;20305;-85
2023/01/30 05:55:08;;;;;;;;;;;5.30;92.80;;;;;;5074905;28;19917;-82
2023/01/30 05:57:34;;;;;;;;;;;5.30;92.90;;;;;;5064401;28;20321;-84
2023/01/30 05:59:59;;;;;;;;;;;5.30;93.00;;;;;;5069595;28;20464;-83
2023/01/30 06:02:25;;;;;;;;;;;5.40;93.00;;;;;;5062778;28;20547;-82
2023/01/30 06:04:50;;;;;;;;;;;5.30;93.00;;;;;;5081733;28;19925;-83
2023/01/30 06:07:15;;;;;;;;;;;5.40;93.20;;;;;;5082723;28;19914;-84
2023/01/30 06:09:41;;;;;;;;;;;5.30;93.10;;;;;;5079662;28;19919;-84
2023/01/30 06:12:06;;;;;;;;;;;5.40;93.10;;;;;;5069731;28;20282;-86
2023/01/30 06:14:32;;;;;;;;;;;5.50;93.20;;;;;;5067596;28;20195;-86
2023/01/30 06:16:57;;;;;;;;;;;5.50;93.20;;;;;;5065129;28;19913;-85
2023/01/30 06:19:23;;;;;;;;;;;5.50;93.10;;;;;;5079348;28;19913;-85
2023/01/30 06:21:48;;;;;;;;;;;5.60;93.30;;;;;;5087365;22;19936;-73
2023/01/30 06:24:14;;;;;;;;;;;5.70;93.20;;;;;;5062360;28;19919;-75
2023/01/30 06:26:39;;;;;;;;;;;5.70;93.20;;;;;;5060473;28;19970;-75
2023/01/30 06:29:05;;;;;;;;;;;5.80;93.00;;;;;;5063878;28;19946;-74
2023/01/30 06:31:30;;;;;;;;;;;5.80;93.00;;;;;;5059669;28;19912;-76
2023/01/30 06:33:56;;;;;;;;;;;5.80;93.00;;;;;;5069927;28;20019;-75
2023/01/30 06:36:21;;;;;;;;;;;5.90;93.10;;;;;;5059753;28;19909;-76
2023/01/30 06:38:47;;;;;;;;;;;5.90;92.90;;;;;;5073019;28;19912;-77
2023/01/30 06:41:13;;;;;;;;;;;6.00;92.80;;;;;;5064274;28;19916;-78
2023/01/30 06:43:40;;;;;;;;;;;6.00;92.60;;;;;;5073661;28;19916;-77
2023/01/30 06:46:05;;;;;;;;;;;6.00;92.70;;;;;;5056031;28;19916;-75
2023/01/30 06:48:30;;;;;;;;;;;6.00;92.50;;;;;;5060605;28;19916;-76
2023/01/30 06:50:56;;;;;;;;;;;6.00;92.50;;;;;;5059866;28;19912;-75
2023/01/30 06:53:24;;;;;;;;;;;6.00;92.40;;;;;;5059841;28;20304;-76
2023/01/30 06:55:49;;;;;;;;;;;6.00;92.20;;;;;;5072167;28;20286;-76
2023/01/30 06:58:15;;;;;;;;;;;6.10;92.20;;;;;;5071338;28;20008;-76
2023/01/30 07:00:41;;;;;;;;;;;6.10;92.20;;;;;;5065830;28;19932;-75
2023/01/30 07:03:09;;;;;;;;;;;6.20;91.90;;;;;;5065263;28;19999;-74
2023/01/30 07:05:36;;;;;;;;;;;6.10;91.90;;;;;;5067862;28;19969;-76
2023/01/30 07:08:01;;;;;;;;;;;6.10;91.90;;;;;;5069402;28;19920;-76
2023/01/30 07:10:28;;;;;;;;;;;6.20;91.90;;;;;;5066626;28;19912;-75
2023/01/30 07:12:53;;;;;;;;;;;6.20;91.80;;;;;;5063309;28;19917;-75
2023/01/30 07:15:18;;;;;;;;;;;6.20;91.80;;;;;;5068470;28;19991;-75
2023/01/30 07:17:44;;;;;;;;;;;6.10;91.70;;;;;;5067564;28;20536;-77
2023/01/30 07:20:10;;;;;;;;;;;6.20;91.70;;;;;;5058423;28;19975;-77
2023/01/30 07:22:36;;;;;;;;;;;6.20;91.50;;;;;;5064194;28;19925;-77
2023/01/30 07:25:01;;;;;;;;;;;6.30;91.60;;;;;;5070793;28;19908;-76
2023/01/30 07:27:27;;;;;;;;;;;6.30;91.30;;;;;;5067463;28;19919;-77
2023/01/30 07:29:52;;;;;;;;;;;6.30;91.30;;;;;;5073290;28;19909;-77
2023/01/30 07:32:18;;;;;;;;;;;6.30;91.20;;;;;;5070210;28;19912;-76
2023/01/30 07:34:44;;;;;;;;;;;6.40;91.00;;;;;;5068511;28;19917;-77
2023/01/30 07:37:10;;;;;;;;;;;6.40;91.00;;;;;;5073608;28;20007;-77
2023/01/30 07:39:35;;;;;;;;;;;6.50;90.90;;;;;;5069062;28;19959;-77
2023/01/30 07:42:01;;;;;;;;;;;6.50;90.90;;;;;;5070962;28;20024;-77
2023/01/30 07:44:27;;;;;;;;;;;6.40;90.70;;;;;;5071574;28;19962;-77
2023/01/30 07:46:52;;;;;;;;;;;6.50;90.60;;;;;;5065595;28;19913;-76
2023/01/30 07:49:17;;;;;;;;;;;6.50;89.60;;;;;;5068691;28;19912;-78
2023/01/30 07:51:43;;;;;;;;;;;6.50;89.60;;;;;;5070334;28;19912;-79
2023/01/30 07:54:08;;;;;;;;;;;6.50;89.70;;;;;;5071618;28;20390;-78
2023/01/30 07:56:34;;;;;;;;;;;6.50;89.10;;;;;;5082994;28;19913;-78
2023/01/30 07:58:59;;;;;;;;;;;6.50;88.40;;;;;;5063568;28;19916;-79
2023/01/30 08:01:25;;;;;;;;;;;6.50;88.40;;;;;;5075571;28;19920;-77
2023/01/30 08:03:50;;;;;;;;;;;6.50;87.80;;;;;;5077773;28;19920;-78
2023/01/30 08:06:16;;;;;;;;;;;6.50;88.20;;;;;;5071288;28;19984;-78
2023/01/30 08:08:41;;;;;;;;;;;6.50;87.80;;;;;;5080812;28;20284;-79
2023/01/30 08:11:07;;;;;;;;;;;6.50;87.80;;;;;;5080806;28;19909;-78
2023/01/30 08:13:33;;;;;;;;;;;6.50;87.20;;;;;;5080103;28;19923;-78
2023/01/30 08:15:59;;;;;;;;;;;6.50;87.40;;;;;;5080634;28;20426;-78
2023/01/30 08:18:25;;;;;;;;;;;6.50;87.40;;;;;;5078783;28;20007;-78
2023/01/30 08:20:50;;;;;;;;;;;6.60;87.60;;;;;;5076828;28;20593;-79
2023/01/30 08:23:16;;;;;;;;;;;6.60;87.00;;;;;;5079610;28;19920;-80
2023/01/30 08:25:41;;;;;;;;;;;6.60;86.40;;;;;;5080180;28;19916;-77
2023/01/30 08:28:07;;;;;;;;;;;6.70;86.20;;;;;;5080345;28;19908;-77
2023/01/30 08:30:33;;;;;;;;;;;6.60;86.00;;;;;;5071296;28;19919;-78
2023/01/30 08:32:58;;;;;;;;;;;6.60;86.10;;;;;;5076671;28;19921;-78
2023/01/30 08:35:24;;;;;;;;;;;6.50;86.30;;;;;;5078305;28;21868;-77
2023/01/30 08:37:49;;;;;;;;;;;6.60;85.30;;;;;;5075407;28;19916;-77
2023/01/30 08:40:15;;;;;;;;;;;6.60;85.30;;;;;;5081279;28;20402;-79
2023/01/30 08:42:42;;;;;;;;;;;6.60;85.00;;;;;;5079008;28;20043;-78
2023/01/30 08:45:08;;;;;;;;;;;6.60;84.50;;;;;;5078902;28;19913;-77
2023/01/30 08:47:34;;;;;;;;;;;6.60;84.80;;;;;;5079150;28;19909;-78
2023/01/30 08:50:00;;;;;;;;;;;6.70;84.70;;;;;;5077032;28;19912;-78
2023/01/30 08:52:25;;;;;;;;;;;6.70;84.30;;;;;;5072436;28;20363;-77
2023/01/30 08:54:51;;;;;;;;;;;6.80;83.90;;;;;;5073544;28;19954;-78
2023/01/30 08:57:16;;;;;;;;;;;6.80;83.60;;;;;;5072627;28;19912;-77
2023/01/30 08:59:42;;;;;;;;;;;6.70;82.80;;;;;;5086730;28;19992;-78
2023/01/30 09:02:08;;;;;;;;;;;6.70;83.30;;;;;;5069727;28;19915;-78
2023/01/30 09:04:34;;;;;;;;;;;6.80;82.70;;;;;;5071098;28;20377;-78
2023/01/30 09:06:59;;;;;;;;;;;6.80;81.30;;;;;;5074568;28;19909;-78
2023/01/30 09:09:25;;;;;;;;;;;6.80;81.20;;;;;;5071435;28;19920;-77
2023/01/30 09:11:50;;;;;;;;;;;6.80;81.30;;;;;;5076585;28;20403;-77
2023/01/30 09:14:18;;;;;;;;;;;6.80;81.90;;;;;;5073527;28;20484;-77
2023/01/30 09:16:45;;;;;;;;;;;6.80;81.50;;;;;;5080722;28;19913;-77
2023/01/30 09:19:10;;;;;;;;;;;6.80;81.60;;;;;;5066879;28;19948;-77
2023/01/30 09:21:37;;;;;;;;;;;6.80;80.60;;;;;;5073915;28;20338;-77
2023/01/30 09:24:03;;;;;;;;;;;6.80;80.90;;;;;;5074030;28;20303;-77
2023/01/30 09:26:29;;;;;;;;;;;6.80;81.10;;;;;;5067565;28;19913;-77
2023/01/30 09:28:54;;;;;;;;;;;6.80;81.20;;;;;;5073941;28;19912;-78
2023/01/30 09:31:19;;;;;;;;;;;6.80;80.90;;;;;;5055713;28;19912;-78
2023/01/30 09:33:45;;;;;;;;;;;6.80;80.40;;;;;;5067882;28;20349;-77
2023/01/30 09:36:12;;;;;;;;;;;7.00;79.80;;;;;;5071786;28;20002;-77
2023/01/30 09:38:37;;;;;;;;;;;6.90;79.50;;;;;;5071704;28;19913;-77
2023/01/30 09:41:12;;;;;;;;;;;6.80;80.00;;;;;;5069781;28;19919;-77
2023/01/30 09:43:49;;;;;;;;;;;7.00;79.50;;;;;;5065407;28;19923;-76
2023/01/30 09:46:19;;;;;;;;;;;7.00;79.60;;;;;;5081607;28;19919;-77
2023/01/30 09:48:54;;;;;;;;;;;7.00;78.90;;;;;;5068789;28;20364;-77
2023/01/30 09:51:32;;;;;;;;;;;7.00;78.60;;;;;;5069089;28;19924;-77
2023/01/30 09:54:13;;;;;;;;;;;7.00;79.10;;;;;;5069069;28;20368;-75
2023/01/30 09:56:38;;;;;;;;;;;7.00;79.00;;;;;;5063689;28;19969;-76
2023/01/30 09:59:04;;;;;;;;;;;6.80;79.00;;;;;;5070297;28;20011;-76
2023/01/30 10:01:59;;;;;;;;;;;6.80;78.50;;;;;;5066717;28;19917;-76
2023/01/30 10:04:32;;;;;;;;;;;6.90;78.50;;;;;;5063997;28;19955;-76
2023/01/30 10:07:00;;;;;;;;;;;6.90;78.20;;;;;;5067131;28;19913;-78
2023/01/30 10:09:32;;;;;;;;;;;6.80;78.40;;;;;;5099585;28;19927;-78
2023/01/30 10:12:09;;;;;;;;;;;6.90;77.60;;;;;;5086065;28;19913;-77
2023/01/30 10:14:42;;;;;;;;;;;6.90;78.10;;;;;;5076314;28;19942;-77
2023/01/30 10:17:37;;;;;;;;;;;6.90;78.00;;;;;;5080250;28;20391;-77
2023/01/30 10:20:12;;;;;;;;;;;6.90;78.90;;;;;;5057018;28;20496;-81
2023/01/30 10:22:46;;;;;;;;;;;7.10;78.10;;;;;;5071968;28;19923;-81
2023/01/30 10:25:30;;;;;;;;;;;7.10;77.50;;;;;;5073425;28;19913;-80
2023/01/30 10:28:15;;;;;;;;;;;7.10;77.80;;;;;;5084685;28;19912;-79
2023/01/30 10:30:42;;;;;;;;;;;7.20;76.10;;;;;;5073570;28;19912;-79
2023/01/30 10:33:18;;;;;;;;;;;7.30;76.60;;;;;;5067897;28;20318;-79
2023/01/30 10:35:43;;;;;;;;;;;7.40;76.10;;;;;;5068286;28;19919;-80
2023/01/30 10:38:18;;;;;;;;;;;7.40;76.30;;;;;;5066362;28;20384;-81
2023/01/30 10:41:02;;;;;;;;;;;7.30;75.20;;;;;;5077690;28;19967;-81
2023/01/30 10:43:31;;;;;;;;;;;7.30;75.00;;;;;;5065882;28;19917;-80
2023/01/30 10:46:17;;;;;;;;;;;7.20;76.00;;;;;;5067945;28;19913;-80
2023/01/30 10:48:49;;;;;;;;;;;7.20;75.50;;;;;;5061604;28;19912;-81
2023/01/30 10:51:22;;;;;;;;;;;7.10;76.20;;;;;;5065367;28;19920;-81
2023/01/30 10:53:57;;;;;;;;;;;7.10;75.30;;;;;;5067731;28;20025;-82
2023/01/30 10:56:25;;;;;;;;;;;7.10;75.00;;;;;;5080234;28;19921;-81
2023/01/30 10:59:17;;;;;;;;;;;7.10;76.00;;;;;;5082923;28;19913;-81
2023/01/30 11:01:44;;;;;;;;;;;7.00;75.70;;;;;;5053154;28;19919;-82
2023/01/30 11:04:21;;;;;;;;;;;7.00;75.00;;;;;;5072388;28;19912;-82
2023/01/30 11:06:47;;;;;;;;;;;7.10;75.10;;;;;;5064883;28;20277;-82
2023/01/30 11:09:12;;;;;;;;;;;7.10;75.50;;;;;;5066314;28;19928;-80
2023/01/30 11:11:38;;;;;;;;;;;7.20;75.10;;;;;;5071918;28;19924;-82
2023/01/30 11:14:05;;;;;;;;;;;7.30;74.40;;;;;;5072657;28;20096;-81
2023/01/30 11:16:32;;;;;;;;;;;7.30;74.70;;;;;;5072674;28;19909;-83
2023/01/30 11:19:03;;;;;;;;;;;7.40;74.40;;;;;;5074579;28;20296;-81
2023/01/30 11:21:29;;;;;;;;;;;7.30;75.30;;;;;;5077026;28;19920;-81
2023/01/30 11:23:55;;;;;;;;;;;7.30;74.60;;;;;;5072021;28;19934;-82
2023/01/30 11:26:22;;;;;;;;;;;7.30;74.40;;;;;;5078174;28;19944;-81
2023/01/30 11:28:48;;;;;;;;;;;7.40;75.10;;;;;;5058526;28;19931;-82
2023/01/30 11:31:18;;;;;;;;;;;7.40;74.80;;;;;;5070928;28;19913;-81
2023/01/30 11:33:44;;;;;;;;;;;7.40;73.60;;;;;;5075369;28;20380;-82
2023/01/30 11:36:26;;;;;;;;;;;7.30;74.40;;;;;;5074628;28;19927;-81
2023/01/30 11:39:02;;;;;;;;;;;7.30;75.10;;;;;;5071019;28;19913;-81
2023/01/30 11:41:28;;;;;;;;;;;7.40;75.00;;;;;;5081948;28;19915;-82
2023/01/30 11:44:01;;;;;;;;;;;7.30;75.30;;;;;;5079625;28;19919;-80
2023/01/30 11:46:28;;;;;;;;;;;7.40;74.90;;;;;;5081135;28;19978;-81
2023/01/30 11:48:55;;;;;;;;;;;7.40;74.50;;;;;;5081757;28;19912;-83
2023/01/30 11:51:22;;;;;;;;;;;7.40;75.20;;;;;;5084524;28;19926;-83
2023/01/30 11:53:52;;;;;;;;;;;7.40;76.70;;;;;;5074937;28;19924;-81
2023/01/30 11:56:23;;;;;;;;;;;7.30;77.40;;;;;;5071638;28;20361;-83
2023/01/30 11:59:12;;;;;;;;;;;7.10;78.90;;;;;;5073300;28;19965;-81
2023/01/30 12:01:37;;;;;;;;;;;7.00;79.60;;;;;;5071284;28;19920;-83
2023/01/30 12:04:09;;;;;;;;;;;6.90;80.50;;;;;;5077009;28;19913;-82
2023/01/30 12:06:36;;;;;;;;;;;7.00;79.70;;;;;;5079629;28;19921;-80
2023/01/30 12:09:02;;;;;;;;;;;7.00;79.30;;;;;;5064590;28;19928;-80
2023/01/30 12:11:43;;;;;;;;;;;7.00;79.60;;;;;;5071226;28;20504;-83
2023/01/30 12:14:25;;;;;;;;;;;7.10;77.50;;;;;;5079876;28;19917;-80
2023/01/30 12:16:59;;;;;;;;;;;7.00;77.70;;;;;;5081969;28;19928;-82
2023/01/30 12:19:43;;;;;;;;;;;7.10;78.10;;;;;;5072982;28;20427;-80
2023/01/30 12:22:17;;;;;;;;;;;7.20;76.90;;;;;;5072296;28;19917;-79
2023/01/30 12:24:57;;;;;;;;;;;7.30;76.80;;;;;;5087938;28;19916;-80
2023/01/30 12:27:36;;;;;;;;;;;7.40;76.20;;;;;;5072739;28;19913;-80
2023/01/30 12:30:07;;;;;;;;;;;7.30;76.70;;;;;;5077992;28;19912;-80
2023/01/30 12:32:34;;;;;;;;;;;7.30;75.50;;;;;;5074006;28;19912;-81
2023/01/30 12:35:00;;;;;;;;;;;7.40;75.70;;;;;;5073852;28;19970;-80
2023/01/30 12:37:44;;;;;;;;;;;7.60;74.70;;;;;;5074184;28;19971;-80
2023/01/30 12:40:18;;;;;;;;;;;7.70;73.00;;;;;;5068142;28;19921;-81
2023/01/30 12:42:47;;;;;;;;;;;7.60;72.90;;;;;;5078492;28;20382;-80
2023/01/30 12:45:18;;;;;;;;;;;7.60;72.60;;;;;;5071140;28;19913;-79
2023/01/30 12:48:03;;;;;;;;;;;7.60;72.70;;;;;;5065467;28;19912;-81
2023/01/30 12:50:36;;;;;;;;;;;7.60;72.00;;;;;;5071490;28;20675;-82
2023/01/30 12:53:17;;;;;;;;;;;7.60;73.00;;;;;;5056322;28;19916;-75
2023/01/30 12:56:00;;;;;;;;;;;7.70;73.50;;;;;;5072431;28;19923;-78
2023/01/30 12:58:38;;;;;;;;;;;7.80;71.80;;;;;;5063078;28;19999;-85
2023/01/30 13:01:10;;;;;;;;;;;7.80;71.60;;;;;;5083750;28;19923;-85
2023/01/30 13:03:43;;;;;;;;;;;7.80;72.10;;;;;;5076207;28;19917;-84
2023/01/30 13:06:28;;;;;;;;;;;7.90;71.40;;;;;;5062033;28;20030;-84
2023/01/30 13:09:13;;;;;;;;;;;7.90;71.00;;;;;;5081663;28;20018;-85
2023/01/30 13:11:48;;;;;;;;;;;7.80;72.00;;;;;;5065657;28;19916;-85
2023/01/30 13:14:13;;;;;;;;;;;7.80;71.40;;;;;;5075243;28;19964;-85
2023/01/30 13:16:48;;;;;;;;;;;7.80;71.40;;;;;;5065730;28;19944;-85
2023/01/30 13:19:25;;;;;;;;;;;7.80;71.00;;;;;;5081622;28;19913;-85
2023/01/30 13:21:55;;;;;;;;;;;7.80;71.10;;;;;;5070253;28;19917;-85
2023/01/30 13:24:41;;;;;;;;;;;8.00;70.50;;;;;;5061642;28;19916;-84
2023/01/30 13:27:12;;;;;;;;;;;8.00;70.10;;;;;;5067001;28;19923;-85
2023/01/30 13:29:38;;;;;;;;;;;8.00;70.00;;;;;;5062966;28;19920;-82
2023/01/30 13:32:05;;;;;;;;;;;8.00;69.10;;;;;;5061967;28;19926;-83
2023/01/30 13:34:35;;;;;;;;;;;8.10;68.70;;;;;;5083452;28;19936;-84
2023/01/30 13:37:05;;;;;;;;;;;8.00;69.70;;;;;;5071842;28;19912;-85
2023/01/30 13:39:36;;;;;;;;;;;8.00;69.40;;;;;;5054780;28;20483;-85
2023/01/30 13:42:04;;;;;;;;;;;8.10;70.00;;;;;;5055849;28;19996;-84
2023/01/30 13:44:31;;;;;;;;;;;8.00;69.50;;;;;;5066155;28;19913;-84
2023/01/30 13:47:02;;;;;;;;;;;8.00;70.60;;;;;;5058584;28;19916;-85
2023/01/30 13:49:33;;;;;;;;;;;8.00;70.50;;;;;;5064543;28;19916;-86
2023/01/30 13:52:08;;;;;;;;;;;8.00;70.40;;;;;;5063293;28;19920;-83
2023/01/30 13:54:34;;;;;;;;;;;8.00;69.00;;;;;;5068182;28;19927;-79
2023/01/30 13:57:25;;;;;;;;;;;8.00;69.30;;;;;;5071476;28;19913;-79
2023/01/30 13:59:51;;;;;;;;;;;7.90;69.30;;;;;;5064698;28;19923;-79
2023/01/30 14:02:20;;;;;;;;;;;7.90;69.40;;;;;;5070561;28;19917;-78
2023/01/30 14:04:47;;;;;;;;;;;7.90;69.10;;;;;;5072604;28;19987;-79
2023/01/30 14:07:21;;;;;;;;;;;8.10;68.80;;;;;;5070207;28;19935;-79
2023/01/30 14:09:48;;;;;;;;;;;8.10;67.30;;;;;;5078199;28;20973;-77
2023/01/30 14:12:17;;;;;;;;;;;8.20;67.70;;;;;;5084269;28;19916;-78
2023/01/30 14:14:55;;;;;;;;;;;8.10;67.40;;;;;;5071718;28;19916;-80
2023/01/30 14:17:20;;;;;;;;;;;8.10;68.30;;;;;;5071804;28;19917;-76
2023/01/30 14:19:55;;;;;;;;;;;8.10;67.60;;;;;;5065216;28;20601;-76
2023/01/30 14:22:25;;;;;;;;;;;8.00;67.20;;;;;;5064820;28;19944;-78
2023/01/30 14:25:09;;;;;;;;;;;8.00;66.60;;;;;;5062563;28;20381;-78
2023/01/30 14:27:35;;;;;;;;;;;8.10;66.70;;;;;;5065479;28;19955;-78
2023/01/30 14:30:00;;;;;;;;;;;8.10;66.70;;;;;;5072572;28;19928;-79
2023/01/30 14:32:34;;;;;;;;;;;8.10;67.30;;;;;;5070346;28;19916;-79
2023/01/30 14:34:59;;;;;;;;;;;8.00;67.40;;;;;;5071721;28;20019;-79
2023/01/30 14:37:26;;;;;;;;;;;8.00;67.90;;;;;;5071837;28;20454;-81
2023/01/30 14:39:54;;;;;;;;;;;8.00;68.20;;;;;;5072019;28;19912;-82
2023/01/30 14:42:21;;;;;;;;;;;8.00;67.80;;;;;;5064640;28;20356;-82
2023/01/30 14:45:25;;;;;;;;;;;7.90;68.20;;;;;;5069960;28;19917;-82